»·PEaware :: UAL1613 KDEN-KLAX

UAL1613 :: KDEN-KLAX

FLIGHT INFORMATION

Flight Status: Arrived
Operator:
United Airlines
More flights by this operator :: More flights under this callsign
Pilot: Thomas C. (28508)
Aircraft: BOEING 777-200
(B772)
More flights by this aircraft type
Origin: KDEN Denver Intl
United States
Destination: KLAX Los Angeles Intl
United States
More flights between these airports :: More routes between these airports
Route: ROCKI5 DBL CHESZ Q88 HAKMN ANJLL4
File this flight plan on PilotEdge
Remarks: PBN / A1B1C1D1L1O1S2 NAV / RNVD1E2A1 DOF / 200419 REG / N217UA EET / KZLC0046 KZLA0054 SEL / QREJ OPR / UAL PER / D RMK / TCAS
Altitude:
(Current/Filed)
40,000ft
Speed:
(Current/Filed)
484kts
Departed: 18-Apr-20 09:30 PM
Arrived: 18-Apr-20 11:23 PM
Distance/Time
Traveled:
747nm/1:53
Distance/Time
To Go:
Arrived

Flight Plot

Page will automatically refresh every two minutes.

Flight plan parsing failed; only flown route is shown


Map Options




Map Legend


Flown Route
Filed Route
Departure Airport
Arrival Airport
Navaid (VOR, NDB)
Fix

Horizontal Profiles

Position Reports

Time Latitude Longitude Heading Altitude Ground
Speed
18-Apr-20 20:58 39.858037 -104.672791 0 5388ft 0kts
18-Apr-20 20:59 39.858037 -104.672791 0 5388ft 0kts
18-Apr-20 21:00 39.858037 -104.672791 0 5388ft 0kts
18-Apr-20 21:01 39.858037 -104.672791 0 5388ft 0kts
18-Apr-20 21:02 39.858037 -104.672791 0 5388ft 0kts
18-Apr-20 21:03 39.858037 -104.672791 0 5388ft 0kts
18-Apr-20 21:04 39.858037 -104.672791 0 5388ft 0kts
18-Apr-20 21:05 39.858037 -104.672791 0 5388ft 0kts
18-Apr-20 21:06 39.858037 -104.672791 0 5388ft 0kts
18-Apr-20 21:07 39.858037 -104.672791 0 5388ft 0kts
18-Apr-20 21:08 39.858037 -104.672791 0 5388ft 0kts
18-Apr-20 21:09 39.858037 -104.672791 0 5388ft 0kts
18-Apr-20 21:10 39.858037 -104.672791 0 5388ft 0kts
18-Apr-20 21:11 39.858037 -104.672791 0 5388ft 0kts
18-Apr-20 21:12 39.858037 -104.672791 0 5388ft 0kts
18-Apr-20 21:13 39.858037 -104.672791 0 5388ft 0kts
18-Apr-20 21:14 39.858037 -104.672791 0 5388ft 0kts
18-Apr-20 21:15 39.858037 -104.672791 0 5388ft 0kts
18-Apr-20 21:16 39.858037 -104.672791 0 5388ft 0kts
18-Apr-20 21:17 39.858037 -104.672791 0 5388ft 0kts
18-Apr-20 21:18 39.857973 -104.672794 19 5388ft 2kts
18-Apr-20 21:19 39.857434 -104.672885 358 5388ft 2kts
18-Apr-20 21:20 39.857209 -104.672561 270 5388ft 0kts
18-Apr-20 21:21 39.857209 -104.672561 270 5388ft 0kts
18-Apr-20 21:22 39.857302 -104.673719 275 5388ft 10kts
18-Apr-20 21:23 39.857357 -104.678664 270 5388ft 9kts
18-Apr-20 21:24 39.856878 -104.682891 270 5384ft 17kts
18-Apr-20 21:25 39.853960 -104.684030 180 5381ft 15kts
18-Apr-20 21:26 39.849227 -104.684075 180 5381ft 18kts
18-Apr-20 21:27 39.843089 -104.684154 180 5375ft 22kts
18-Apr-20 21:28 39.840665 -104.686407 270 5375ft 34kts
18-Apr-20 21:29 39.841610 -104.733485 272 6288ft 176kts
18-Apr-20 21:30 39.846033 -104.810720 273 8414ft 248kts
18-Apr-20 21:31 39.846677 -104.912212 256 11455ft 299kts
18-Apr-20 21:32 39.821128 -105.019450 252 15275ft 309kts
18-Apr-20 21:33 39.798465 -105.129540 258 18026ft 345kts
18-Apr-20 21:34 39.772233 -105.259841 257 20570ft 388kts
18-Apr-20 21:35 39.744204 -105.396441 256 23662ft 406kts
18-Apr-20 21:36 39.714491 -105.540803 256 26478ft 423kts
18-Apr-20 21:37 39.683516 -105.691714 256 28965ft 440kts
18-Apr-20 21:38 39.652511 -105.848406 256 31286ft 455kts
18-Apr-20 21:39 39.620259 -106.010146 256 33561ft 471kts
18-Apr-20 21:40 39.587447 -106.173528 256 36561ft 462kts
18-Apr-20 21:41 39.555025 -106.333612 256 38727ft 459kts
18-Apr-20 21:42 39.522514 -106.492775 256 40007ft 454kts
18-Apr-20 21:43 39.489918 -106.651296 255 40017ft 456kts
18-Apr-20 21:44 39.457046 -106.809950 255 40023ft 456kts
18-Apr-20 21:45 39.414767 -106.964261 247 40016ft 453kts
18-Apr-20 21:46 39.363060 -107.112643 247 40021ft 452kts
18-Apr-20 21:47 39.310987 -107.260486 247 40106ft 452kts
18-Apr-20 21:48 39.258866 -107.407680 247 40099ft 452kts
18-Apr-20 21:49 39.206369 -107.555187 247 40097ft 452kts
18-Apr-20 21:50 39.153802 -107.702130 246 40105ft 452kts
18-Apr-20 21:51 39.100816 -107.849538 246 40008ft 453kts
18-Apr-20 21:52 39.047965 -107.995821 246 39994ft 452kts
18-Apr-20 21:53 38.994676 -108.142592 247 39993ft 452kts
18-Apr-20 21:54 38.941439 -108.288499 247 39992ft 452kts
18-Apr-20 21:55 38.887879 -108.434573 247 39971ft 452kts
18-Apr-20 21:56 38.833948 -108.580922 247 39962ft 452kts
18-Apr-20 21:57 38.780698 -108.724735 246 39969ft 453kts
18-Apr-20 21:58 38.726608 -108.870121 246 39968ft 452kts
18-Apr-20 21:59 38.672273 -109.015454 246 39966ft 452kts
18-Apr-20 22:00 38.617831 -109.160372 246 39966ft 452kts
18-Apr-20 22:01 38.563258 -109.304948 246 39964ft 453kts
18-Apr-20 22:02 38.508372 -109.449658 246 39963ft 453kts
18-Apr-20 22:03 38.453374 -109.593976 246 39962ft 453kts
18-Apr-20 22:04 38.398272 -109.737880 246 39969ft 453kts
18-Apr-20 22:05 38.342816 -109.882033 246 39968ft 453kts
18-Apr-20 22:06 38.287183 -110.025962 246 40001ft 452kts
18-Apr-20 22:07 38.228518 -110.168117 244 40181ft 453kts
18-Apr-20 22:08 38.169507 -110.309830 244 40181ft 453kts
18-Apr-20 22:09 38.110403 -110.451115 244 40180ft 453kts
18-Apr-20 22:10 38.051314 -110.591733 245 40179ft 452kts
18-Apr-20 22:11 37.992034 -110.732168 244 40186ft 453kts
18-Apr-20 22:12 37.932294 -110.873076 244 40185ft 452kts
18-Apr-20 22:13 37.872714 -111.012991 244 40183ft 452kts
18-Apr-20 22:14 37.812875 -111.152896 244 40181ft 452kts
18-Apr-20 22:15 37.753102 -111.292037 244 40179ft 452kts
18-Apr-20 22:16 37.692991 -111.431357 244 40121ft 452kts
18-Apr-20 22:17 37.632805 -111.570242 244 40070ft 451kts
18-Apr-20 22:18 37.572987 -111.707682 244 40078ft 451kts
18-Apr-20 22:19 37.512436 -111.846226 244 40077ft 451kts
18-Apr-20 22:20 37.440030 -111.975919 237 40075ft 454kts
18-Apr-20 22:21 37.365279 -112.103644 237 40074ft 454kts
18-Apr-20 22:22 37.290500 -112.231133 237 40095ft 453kts
18-Apr-20 22:23 37.215556 -112.358416 237 40099ft 453kts
18-Apr-20 22:24 37.140784 -112.484926 237 40098ft 453kts
18-Apr-20 22:25 37.065747 -112.611405 237 40097ft 453kts
18-Apr-20 22:26 36.990483 -112.737923 237 40106ft 453kts
18-Apr-20 22:27 36.915016 -112.864338 237 40077ft 452kts
18-Apr-20 22:28 36.840409 -112.988856 237 40074ft 452kts
18-Apr-20 22:29 36.764842 -113.114503 237 40073ft 452kts
18-Apr-20 22:30 36.689430 -113.239428 237 40072ft 452kts
18-Apr-20 22:31 36.614491 -113.364288 239 40072ft 450kts
18-Apr-20 22:32 36.542636 -113.491086 239 40016ft 450kts
18-Apr-20 22:33 36.470485 -113.617775 239 40014ft 449kts
18-Apr-20 22:34 36.399454 -113.741986 239 40024ft 445kts
18-Apr-20 22:35 36.332326 -113.859053 239 40023ft 445kts
18-Apr-20 22:36 36.260326 -113.984123 239 40022ft 445kts
18-Apr-20 22:37 36.188337 -114.108720 239 40010ft 445kts
18-Apr-20 22:38 36.116225 -114.233077 239 39992ft 444kts
18-Apr-20 22:39 36.038082 -114.351552 234 39991ft 448kts
18-Apr-20 22:40 35.955099 -114.466609 234 39990ft 448kts
18-Apr-20 22:41 35.872117 -114.581105 234 39985ft 448kts
18-Apr-20 22:42 35.788703 -114.695789 234 39997ft 448kts
18-Apr-20 22:43 35.705101 -114.810353 234 39996ft 447kts
18-Apr-20 22:45 35.622104 -114.923894 234 39994ft 447kts
18-Apr-20 22:46 35.539125 -115.037211 234 39994ft 447kts
18-Apr-20 22:47 35.454812 -115.149207 233 39992ft 447kts
18-Apr-20 22:48 35.369582 -115.260418 233 39961ft 447kts
18-Apr-20 22:49 35.284689 -115.370814 233 39963ft 447kts
18-Apr-20 22:50 35.199432 -115.481328 233 40015ft 447kts
18-Apr-20 22:51 35.114385 -115.591117 233 39960ft 446kts
18-Apr-20 22:52 35.029500 -115.699668 232 40054ft 447kts
18-Apr-20 22:53 34.943635 -115.809117 233 39976ft 445kts
18-Apr-20 22:54 34.857458 -115.918587 233 38733ft 443kts
18-Apr-20 22:55 34.772207 -116.026628 233 37037ft 445kts
18-Apr-20 22:56 34.686488 -116.135857 234 35072ft 450kts
18-Apr-20 22:57 34.599342 -116.246587 234 32910ft 458kts
18-Apr-20 22:58 34.510909 -116.358491 234 30759ft 454kts
18-Apr-20 22:59 34.426458 -116.466325 238 28809ft 425kts
18-Apr-20 23:00 34.372220 -116.586082 249 26889ft 395kts
18-Apr-20 23:01 34.325039 -116.700730 249 25172ft 377kts
18-Apr-20 23:01 34.287343 -116.794455 248 23720ft 366kts
18-Apr-20 23:03 34.236701 -116.919948 248 21790ft 358kts
18-Apr-20 23:04 34.198770 -117.029604 254 20144ft 349kts
18-Apr-20 23:04 34.173612 -117.121925 254 18808ft 345kts
18-Apr-20 23:06 34.138678 -117.249339 254 16818ft 339kts
18-Apr-20 23:06 34.113805 -117.339526 254 15466ft 334kts
18-Apr-20 23:08 34.081949 -117.463662 256 13672ft 323kts
18-Apr-20 23:09 34.049332 -117.564877 249 12171ft 315kts
18-Apr-20 23:09 34.021015 -117.643533 249 10990ft 287kts
18-Apr-20 23:11 34.000347 -117.752100 263 9431ft 279kts
18-Apr-20 23:11 33.992647 -117.829562 262 8308ft 279kts
18-Apr-20 23:12 33.983492 -117.922306 263 7288ft 263kts
18-Apr-20 23:13 33.976108 -117.997551 263 7139ft 191kts
18-Apr-20 23:14 33.969894 -118.060140 264 5744ft 183kts
18-Apr-20 23:15 33.963960 -118.120662 260 4259ft 181kts
18-Apr-20 23:16 33.958296 -118.177790 263 3242ft 151kts
18-Apr-20 23:17 33.953666 -118.223132 263 2026ft 131kts
18-Apr-20 23:18 33.949321 -118.266664 264 1857ft 126kts
18-Apr-20 23:19 33.944931 -118.309014 263 1338ft 125kts
18-Apr-20 23:20 33.940684 -118.350674 263 666ft 123kts
18-Apr-20 23:21 33.936446 -118.391797 263 119ft 94kts
18-Apr-20 23:22 33.936221 -118.403773 277 136ft 17kts
18-Apr-20 23:23 33.936228 -118.408750 315 141ft 10kts
18-Apr-20 23:24 33.938078 -118.406742 82 141ft 16kts
18-Apr-20 23:25 33.938737 -118.400650 51 131ft 5kts
18-Apr-20 23:26 33.940652 -118.400223 75 131ft 2kts
18-Apr-20 23:27 33.940660 -118.400186 75 131ft 0kts

Navigation Log

Ident Type
Flight plan parsing failed, navigation log unavailable